PWSweather.com
Personal Weather Stations
Station Observations
WESTON01
WestonSuperMareGB BS22 8RT

WestonSuperMareGB BS22 8RT

Lat: 51.351508, Lon: -2.933373

Elevation: 15

Station Type: Fine Offset WH1080

http://www.westonweather.co.uk

Latest ConditionsUpdated 12:00:02 PM GMT Friday, Jun 23, 2017
Currently Today's Max Today's Min Today's Average
Temperature 66.1°F18.9°C 66.7°F19.3°C 58.0°F14.4°C 61.6°F16.4°C
Dew Point 53.6°F12.0°C 53.7°F12.1°C 48.3°F9.1°C 50.5°F10.3°C
Winds 9.9 mph W15.9 kmh W 18.9 mph W30.4 kmh W - 13.2 mph 21.2 kmh
Wind Gusts 17.0 mph27.4 kmh 29.2 mph47.0 kmh - -
Humidity 64% 72% 61% 67%
Pressure 30.07 in1018.3 mb 30.07 in1018.3 mb 30.01 in1016.3 mb -
Hour Temp Dew Point Humidity Winds Wind Gusts Pressure Precip Precip Rate Daily Precip Total
12:00 PM 66.1°F18.9°C 53.6°F12.0°C 64% 9.9 mph W15.9 kmh W 17.0 mph27.4 kmh 30.07 in1018.3 mb 0.00 in0.0 mm 0.00 in0.0 mm 0.00 in0.0 mm
11:55 AM 66.1°F18.9°C 53.6°F12.0°C 64% 9.7 mph WSW15.6 kmh WSW 13.7 mph22.0 kmh 30.07 in1018.3 mb 0.00 in0.0 mm 0.00 in0.0 mm 0.00 in0.0 mm
11:50 AM 66.1°F18.9°C 53.6°F12.0°C 64% 11.2 mph W18.0 kmh W 20.8 mph33.5 kmh 30.07 in1018.3 mb 0.00 in0.0 mm 0.00 in0.0 mm 0.00 in0.0 mm
11:45 AM 65.9°F18.8°C 53.4°F11.9°C 64% 13.1 mph W21.1 kmh W 20.8 mph33.5 kmh 30.07 in1018.3 mb 0.00 in0.0 mm 0.00 in0.0 mm 0.00 in0.0 mm
11:40 AM 65.9°F18.8°C 53.0°F11.7°C 63% 13.1 mph W21.1 kmh W 17.9 mph28.8 kmh 30.07 in1018.3 mb 0.00 in0.0 mm 0.00 in0.0 mm 0.00 in0.0 mm
11:35 AM 66.1°F18.9°C 53.1°F11.7°C 63% 13.7 mph W22.0 kmh W 17.3 mph27.8 kmh 30.07 in1018.3 mb 0.00 in0.0 mm 0.00 in0.0 mm 0.00 in0.0 mm
11:30 AM 66.5°F19.2°C 53.5°F11.9°C 63% 14.3 mph W23.0 kmh W 17.3 mph27.8 kmh 30.07 in1018.3 mb 0.00 in0.0 mm 0.00 in0.0 mm 0.00 in0.0 mm
11:25 AM 66.5°F19.2°C 53.5°F11.9°C 63% 12.8 mph W20.6 kmh W 19.3 mph31.1 kmh 30.07 in1018.3 mb 0.00 in0.0 mm 0.00 in0.0 mm 0.00 in0.0 mm
11:20 AM 66.5°F19.2°C 53.5°F11.9°C 63% 11.4 mph W18.3 kmh W 19.3 mph31.1 kmh 30.07 in1018.3 mb 0.00 in0.0 mm 0.00 in0.0 mm 0.00 in0.0 mm
11:15 AM 66.7°F19.3°C 53.7°F12.1°C 63% 10.5 mph W16.9 kmh W 17.3 mph27.8 kmh 30.07 in1018.3 mb 0.00 in0.0 mm 0.00 in0.0 mm 0.00 in0.0 mm
11:10 AM 66.5°F19.2°C 53.0°F11.7°C 62% 11.7 mph W18.8 kmh W 22.0 mph35.4 kmh 30.07 in1018.3 mb 0.00 in0.0 mm 0.00 in0.0 mm 0.00 in0.0 mm
11:05 AM 66.5°F19.2°C 53.0°F11.7°C 62% 13.4 mph W21.6 kmh W 22.0 mph35.4 kmh 30.07 in1018.3 mb 0.00 in0.0 mm 0.00 in0.0 mm 0.00 in0.0 mm
11:00 AM 65.9°F18.8°C 52.5°F11.4°C 62% 11.5 mph W18.5 kmh W 17.0 mph27.4 kmh 30.07 in1018.3 mb 0.00 in0.0 mm 0.00 in0.0 mm 0.00 in0.0 mm
10:55 AM 65.9°F18.8°C 52.5°F11.4°C 62% 12.2 mph WSW19.6 kmh WSW 19.3 mph31.1 kmh 30.07 in1018.3 mb 0.00 in0.0 mm 0.00 in0.0 mm 0.00 in0.0 mm
10:50 AM 65.9°F18.8°C 52.5°F11.4°C 62% 13.4 mph WSW21.6 kmh WSW 19.3 mph31.1 kmh 30.07 in1018.3 mb 0.00 in0.0 mm 0.00 in0.0 mm 0.00 in0.0 mm
10:45 AM 65.8°F18.8°C 52.4°F11.3°C 62% 14.2 mph W22.9 kmh W 18.4 mph29.6 kmh 30.07 in1018.3 mb 0.00 in0.0 mm 0.00 in0.0 mm 0.00 in0.0 mm
10:40 AM 65.8°F18.8°C 51.9°F11.1°C 61% 15.2 mph W24.5 kmh W 20.5 mph33.0 kmh 30.07 in1018.3 mb 0.00 in0.0 mm 0.00 in0.0 mm 0.00 in0.0 mm
10:35 AM 65.9°F18.8°C 52.1°F11.2°C 61% 13.7 mph WSW22.0 kmh WSW 20.5 mph33.0 kmh 30.07 in1018.3 mb 0.00 in0.0 mm 0.00 in0.0 mm 0.00 in0.0 mm
10:30 AM 65.6°F18.7°C 52.2°F11.2°C 62% 11.8 mph W19.0 kmh W 17.6 mph28.3 kmh 30.07 in1018.3 mb 0.00 in0.0 mm 0.00 in0.0 mm 0.00 in0.0 mm
10:25 AM 65.6°F18.7°C 52.2°F11.2°C 62% 13.5 mph W21.7 kmh W 22.6 mph36.4 kmh 30.07 in1018.3 mb 0.00 in0.0 mm 0.00 in0.0 mm 0.00 in0.0 mm
10:20 AM 64.8°F18.2°C 52.0°F11.1°C 63% 15.1 mph W24.3 kmh W 22.6 mph36.4 kmh 30.07 in1018.3 mb 0.00 in0.0 mm 0.00 in0.0 mm 0.00 in0.0 mm
10:15 AM 64.8°F18.2°C 52.0°F11.1°C 63% 14.6 mph W23.5 kmh W 18.7 mph30.1 kmh 30.07 in1018.3 mb 0.00 in0.0 mm 0.00 in0.0 mm 0.00 in0.0 mm
10:10 AM 65.0°F18.3°C 51.7°F10.9°C 62% 14.8 mph W23.8 kmh W 18.7 mph30.1 kmh 30.07 in1018.3 mb 0.00 in0.0 mm 0.00 in0.0 mm 0.00 in0.0 mm
10:05 AM 65.4°F18.6°C 52.0°F11.1°C 62% 14.6 mph WSW23.5 kmh WSW 20.2 mph32.5 kmh 30.07 in1018.3 mb 0.00 in0.0 mm 0.00 in0.0 mm 0.00 in0.0 mm
10:00 AM 65.6°F18.7°C 52.2°F11.2°C 62% 14.7 mph WSW23.7 kmh WSW 20.2 mph32.5 kmh 30.07 in1018.3 mb 0.00 in0.0 mm 0.00 in0.0 mm 0.00 in0.0 mm
09:55 AM 65.8°F18.8°C 51.9°F11.1°C 61% 14.7 mph WSW23.7 kmh WSW 18.1 mph29.1 kmh 30.07 in1018.3 mb 0.00 in0.0 mm 0.00 in0.0 mm 0.00 in0.0 mm
09:50 AM 65.8°F18.8°C 51.9°F11.1°C 61% 13.6 mph WSW21.9 kmh WSW 17.6 mph28.3 kmh 30.07 in1018.3 mb 0.00 in0.0 mm 0.00 in0.0 mm 0.00 in0.0 mm
09:45 AM 65.8°F18.8°C 52.4°F11.3°C 62% 15.0 mph W24.1 kmh W 20.5 mph33.0 kmh 30.07 in1018.3 mb 0.00 in0.0 mm 0.00 in0.0 mm 0.00 in0.0 mm
09:40 AM 65.6°F18.7°C 52.2°F11.2°C 62% 17.4 mph WSW28.0 kmh WSW 21.7 mph34.9 kmh 30.07 in1018.3 mb 0.00 in0.0 mm 0.00 in0.0 mm 0.00 in0.0 mm
09:35 AM 65.2°F18.4°C 52.3°F11.3°C 63% 16.6 mph WSW26.7 kmh WSW 21.7 mph34.9 kmh 30.07 in1018.3 mb 0.00 in0.0 mm 0.00 in0.0 mm 0.00 in0.0 mm
09:30 AM 64.8°F18.2°C 52.0°F11.1°C 63% 15.6 mph W25.1 kmh W 18.4 mph29.6 kmh 30.07 in1018.3 mb 0.00 in0.0 mm 0.00 in0.0 mm 0.00 in0.0 mm
09:25 AM 64.3°F17.9°C 51.4°F10.8°C 63% 14.9 mph W24.0 kmh W 19.6 mph31.5 kmh 30.07 in1018.3 mb 0.00 in0.0 mm 0.00 in0.0 mm 0.00 in0.0 mm
09:20 AM 64.1°F17.8°C 51.3°F10.7°C 63% 14.1 mph W22.7 kmh W 19.6 mph31.5 kmh 30.07 in1018.3 mb 0.00 in0.0 mm 0.00 in0.0 mm 0.00 in0.0 mm
09:15 AM 64.0°F17.8°C 51.1°F10.6°C 63% 14.3 mph W23.0 kmh W 22.6 mph36.4 kmh 30.07 in1018.3 mb 0.00 in0.0 mm 0.00 in0.0 mm 0.00 in0.0 mm
09:10 AM 64.0°F17.8°C 51.1°F10.6°C 63% 15.6 mph W25.1 kmh W 22.6 mph36.4 kmh 30.07 in1018.3 mb 0.00 in0.0 mm 0.00 in0.0 mm 0.00 in0.0 mm
09:05 AM 64.0°F17.8°C 50.7°F10.4°C 62% 15.4 mph WSW24.8 kmh WSW 17.9 mph28.8 kmh 30.07 in1018.3 mb 0.00 in0.0 mm 0.00 in0.0 mm 0.00 in0.0 mm
09:00 AM 64.0°F17.8°C 50.7°F10.4°C 62% 14.8 mph W23.8 kmh W 22.0 mph35.4 kmh 30.07 in1018.3 mb 0.00 in0.0 mm 0.00 in0.0 mm 0.00 in0.0 mm
08:55 AM 64.1°F17.8°C 50.8°F10.4°C 62% 14.3 mph WNW23.0 kmh WNW 22.0 mph35.4 kmh 30.07 in1018.3 mb 0.00 in0.0 mm 0.00 in0.0 mm 0.00 in0.0 mm
08:50 AM 64.3°F17.9°C 51.0°F10.6°C 62% 15.1 mph W24.3 kmh W 22.0 mph35.4 kmh 30.07 in1018.3 mb 0.00 in0.0 mm 0.00 in0.0 mm 0.00 in0.0 mm
08:45 AM 64.3°F17.9°C 51.0°F10.6°C 62% 15.9 mph W25.6 kmh W 22.0 mph35.4 kmh 30.07 in1018.3 mb 0.00 in0.0 mm 0.00 in0.0 mm 0.00 in0.0 mm
08:40 AM 64.7°F18.2°C 51.3°F10.7°C 62% 16.1 mph W25.9 kmh W 20.5 mph33.0 kmh 30.07 in1018.3 mb 0.00 in0.0 mm 0.00 in0.0 mm 0.00 in0.0 mm
08:35 AM 64.5°F18.1°C 50.7°F10.4°C 61% 16.2 mph W26.1 kmh W 19.6 mph31.5 kmh 30.07 in1018.3 mb 0.00 in0.0 mm 0.00 in0.0 mm 0.00 in0.0 mm
08:30 AM 64.7°F18.2°C 50.9°F10.5°C 61% 16.9 mph W27.2 kmh W 23.2 mph37.3 kmh 30.07 in1018.3 mb 0.00 in0.0 mm 0.00 in0.0 mm 0.00 in0.0 mm
08:25 AM 64.5°F18.1°C 50.7°F10.4°C 61% 18.9 mph W30.4 kmh W 25.6 mph41.2 kmh 30.07 in1018.3 mb 0.00 in0.0 mm 0.00 in0.0 mm 0.00 in0.0 mm
08:20 AM 64.5°F18.1°C 51.2°F10.7°C 62% 18.7 mph WNW30.1 kmh WNW 25.6 mph41.2 kmh 30.07 in1018.3 mb 0.00 in0.0 mm 0.00 in0.0 mm 0.00 in0.0 mm
08:15 AM 64.7°F18.2°C 51.3°F10.7°C 62% 17.0 mph WNW27.4 kmh WNW 26.2 mph42.2 kmh 30.07 in1018.3 mb 0.00 in0.0 mm 0.00 in0.0 mm 0.00 in0.0 mm
08:10 AM 64.7°F18.2°C 51.8°F11.0°C 63% 15.4 mph W24.8 kmh W 26.2 mph42.2 kmh 30.04 in1017.3 mb 0.00 in0.0 mm 0.00 in0.0 mm 0.00 in0.0 mm
08:05 AM 65.0°F18.3°C 52.1°F11.2°C 63% 15.8 mph W25.4 kmh W 23.2 mph37.3 kmh 30.04 in1017.3 mb 0.00 in0.0 mm 0.00 in0.0 mm 0.00 in0.0 mm
08:00 AM 64.7°F18.2°C 52.2°F11.2°C 64% 16.3 mph W26.2 kmh W 23.2 mph37.3 kmh 30.04 in1017.3 mb 0.00 in0.0 mm 0.00 in0.0 mm 0.00 in0.0 mm
07:55 AM 64.5°F18.1°C 52.5°F11.4°C 65% 13.2 mph W21.2 kmh W 19.6 mph31.5 kmh 30.04 in1017.3 mb 0.00 in0.0 mm 0.00 in0.0 mm 0.00 in0.0 mm
07:50 AM 64.0°F17.8°C 51.9°F11.1°C 65% 14.0 mph W22.5 kmh W 25.9 mph41.7 kmh 30.04 in1017.3 mb 0.00 in0.0 mm 0.00 in0.0 mm 0.00 in0.0 mm
07:45 AM 63.6°F17.6°C 51.6°F10.9°C 65% 16.6 mph W26.7 kmh W 25.9 mph41.7 kmh 30.04 in1017.3 mb 0.00 in0.0 mm 0.00 in0.0 mm 0.00 in0.0 mm
07:40 AM 63.0°F17.2°C 51.5°F10.8°C 66% 17.8 mph W28.6 kmh W 22.3 mph35.9 kmh 30.04 in1017.3 mb 0.00 in0.0 mm 0.00 in0.0 mm 0.00 in0.0 mm
07:35 AM 62.7°F17.1°C 51.2°F10.7°C 66% 16.0 mph W25.7 kmh W 22.3 mph35.9 kmh 30.04 in1017.3 mb 0.00 in0.0 mm 0.00 in0.0 mm 0.00 in0.0 mm
07:30 AM 62.7°F17.1°C 51.2°F10.7°C 66% 14.2 mph W22.9 kmh W 17.9 mph28.8 kmh 30.04 in1017.3 mb 0.00 in0.0 mm 0.00 in0.0 mm 0.00 in0.0 mm
07:25 AM 62.7°F17.1°C 51.2°F10.7°C 66% 12.5 mph W20.1 kmh W 17.9 mph28.8 kmh 30.04 in1017.3 mb 0.00 in0.0 mm 0.00 in0.0 mm 0.00 in0.0 mm
07:20 AM 62.7°F17.1°C 51.2°F10.7°C 66% 12.8 mph W20.6 kmh W 20.5 mph33.0 kmh 30.04 in1017.3 mb 0.00 in0.0 mm 0.00 in0.0 mm 0.00 in0.0 mm
07:15 AM 62.7°F17.1°C 51.2°F10.7°C 66% 14.7 mph W23.7 kmh W 23.5 mph37.8 kmh 30.04 in1017.3 mb 0.00 in0.0 mm 0.00 in0.0 mm 0.00 in0.0 mm
07:10 AM 62.7°F17.1°C 51.2°F10.7°C 66% 14.6 mph W23.5 kmh W 23.5 mph37.8 kmh 30.04 in1017.3 mb 0.00 in0.0 mm 0.00 in0.0 mm 0.00 in0.0 mm
07:05 AM 62.5°F16.9°C 51.4°F10.8°C 67% 14.4 mph W23.2 kmh W 20.5 mph33.0 kmh 30.04 in1017.3 mb 0.00 in0.0 mm 0.00 in0.0 mm 0.00 in0.0 mm
07:00 AM 62.3°F16.8°C 51.2°F10.7°C 67% 14.1 mph W22.7 kmh W 20.5 mph33.0 kmh 30.04 in1017.3 mb 0.00 in0.0 mm 0.00 in0.0 mm 0.00 in0.0 mm
06:55 AM 62.3°F16.8°C 51.6°F10.9°C 68% 13.8 mph W22.2 kmh W 19.6 mph31.5 kmh 30.04 in1017.3 mb 0.00 in0.0 mm 0.00 in0.0 mm 0.00 in0.0 mm
06:50 AM 62.2°F16.8°C 51.9°F11.1°C 69% 13.8 mph W22.2 kmh W 19.6 mph31.5 kmh 30.04 in1017.3 mb 0.00 in0.0 mm 0.00 in0.0 mm 0.00 in0.0 mm
06:45 AM 62.0°F16.7°C 52.1°F11.2°C 70% 13.7 mph W22.0 kmh W 20.5 mph33.0 kmh 30.04 in1017.3 mb 0.00 in0.0 mm 0.00 in0.0 mm 0.00 in0.0 mm
06:40 AM 61.8°F16.6°C 51.9°F11.1°C 70% 14.4 mph W23.2 kmh W 20.8 mph33.5 kmh 30.04 in1017.3 mb 0.00 in0.0 mm 0.00 in0.0 mm 0.00 in0.0 mm
06:35 AM 61.8°F16.6°C 51.9°F11.1°C 70% 14.5 mph W23.3 kmh W 21.1 mph34.0 kmh 30.04 in1017.3 mb 0.00 in0.0 mm 0.00 in0.0 mm 0.00 in0.0 mm
06:30 AM 61.6°F16.4°C 52.1°F11.2°C 71% 13.7 mph W22.0 kmh W 21.1 mph34.0 kmh 30.04 in1017.3 mb 0.00 in0.0 mm 0.00 in0.0 mm 0.00 in0.0 mm
06:25 AM 61.4°F16.3°C 51.6°F10.9°C 70% 16.1 mph W25.9 kmh W 22.9 mph36.9 kmh 30.04 in1017.3 mb 0.00 in0.0 mm 0.00 in0.0 mm 0.00 in0.0 mm
06:20 AM 61.3°F16.3°C 51.8°F11.0°C 71% 15.9 mph WSW25.6 kmh WSW 22.9 mph36.9 kmh 30.04 in1017.3 mb 0.00 in0.0 mm 0.00 in0.0 mm 0.00 in0.0 mm
06:15 AM 61.1°F16.2°C 51.2°F10.7°C 70% 13.3 mph W21.4 kmh W 20.5 mph33.0 kmh 30.04 in1017.3 mb 0.00 in0.0 mm 0.00 in0.0 mm 0.00 in0.0 mm
06:10 AM 60.9°F16.1°C 51.0°F10.6°C 70% 11.7 mph W18.8 kmh W 16.1 mph25.9 kmh 30.04 in1017.3 mb 0.00 in0.0 mm 0.00 in0.0 mm 0.00 in0.0 mm
06:05 AM 60.5°F15.8°C 50.7°F10.4°C 70% 11.8 mph W19.0 kmh W 16.4 mph26.4 kmh 30.04 in1017.3 mb 0.00 in0.0 mm 0.00 in0.0 mm 0.00 in0.0 mm
06:00 AM 60.3°F15.7°C 50.5°F10.3°C 70% 14.2 mph W22.9 kmh W 20.5 mph33.0 kmh 30.04 in1017.3 mb 0.00 in0.0 mm 0.00 in0.0 mm 0.00 in0.0 mm
05:55 AM 60.3°F15.7°C 50.5°F10.3°C 70% 14.9 mph WSW24.0 kmh WSW 21.4 mph34.4 kmh 30.04 in1017.3 mb 0.00 in0.0 mm 0.00 in0.0 mm 0.00 in0.0 mm
05:50 AM 60.2°F15.7°C 50.3°F10.2°C 70% 14.1 mph W22.7 kmh W 21.4 mph34.4 kmh 30.04 in1017.3 mb 0.00 in0.0 mm 0.00 in0.0 mm 0.00 in0.0 mm
05:45 AM 60.2°F15.7°C 50.3°F10.2°C 70% 14.0 mph W22.5 kmh W 19.3 mph31.1 kmh 30.04 in1017.3 mb 0.00 in0.0 mm 0.00 in0.0 mm 0.00 in0.0 mm
05:40 AM 60.2°F15.7°C 50.7°F10.4°C 71% 12.2 mph W19.6 kmh W 19.3 mph31.1 kmh 30.01 in1016.3 mb 0.00 in0.0 mm 0.00 in0.0 mm 0.00 in0.0 mm
05:35 AM 60.2°F15.7°C 50.7°F10.4°C 71% 12.8 mph W20.6 kmh W 20.2 mph32.5 kmh 30.01 in1016.3 mb 0.00 in0.0 mm 0.00 in0.0 mm 0.00 in0.0 mm
05:30 AM 60.2°F15.7°C 50.7°F10.4°C 71% 11.0 mph W17.7 kmh W 20.2 mph32.5 kmh 30.01 in1016.3 mb 0.00 in0.0 mm 0.00 in0.0 mm 0.00 in0.0 mm
05:25 AM 60.0°F15.6°C 50.6°F10.3°C 71% 10.3 mph W16.6 kmh W 20.5 mph33.0 kmh 30.01 in1016.3 mb 0.00 in0.0 mm 0.00 in0.0 mm 0.00 in0.0 mm
05:20 AM 59.8°F15.4°C 50.0°F10.0°C 70% 16.2 mph W26.1 kmh W 26.2 mph42.2 kmh 30.01 in1016.3 mb 0.00 in0.0 mm 0.00 in0.0 mm 0.00 in0.0 mm
05:15 AM 59.6°F15.3°C 50.2°F10.1°C 71% 16.9 mph W27.2 kmh W 26.2 mph42.2 kmh 30.01 in1016.3 mb 0.00 in0.0 mm 0.00 in0.0 mm 0.00 in0.0 mm
05:10 AM 59.5°F15.3°C 50.0°F10.0°C 71% 11.9 mph WNW19.2 kmh WNW 19.6 mph31.5 kmh 30.04 in1017.3 mb 0.00 in0.0 mm 0.00 in0.0 mm 0.00 in0.0 mm
05:05 AM 59.5°F15.3°C 50.0°F10.0°C 71% 10.0 mph W16.1 kmh W 14.0 mph22.5 kmh 30.04 in1017.3 mb 0.00 in0.0 mm 0.00 in0.0 mm 0.00 in0.0 mm
05:00 AM 59.5°F15.3°C 50.0°F10.0°C 71% 11.8 mph WSW19.0 kmh WSW 14.9 mph24.0 kmh 30.04 in1017.3 mb 0.00 in0.0 mm 0.00 in0.0 mm 0.00 in0.0 mm
04:55 AM 59.3°F15.2°C 49.9°F9.9°C 71% 13.2 mph WSW21.2 kmh WSW 16.4 mph26.4 kmh 30.04 in1017.3 mb 0.00 in0.0 mm 0.00 in0.0 mm 0.00 in0.0 mm
04:50 AM 59.3°F15.2°C 49.9°F9.9°C 71% 13.3 mph W21.4 kmh W 17.6 mph28.3 kmh 30.04 in1017.3 mb 0.00 in0.0 mm 0.00 in0.0 mm 0.00 in0.0 mm
04:45 AM 59.3°F15.2°C 49.9°F9.9°C 71% 14.0 mph W22.5 kmh W 17.6 mph28.3 kmh 30.04 in1017.3 mb 0.00 in0.0 mm 0.00 in0.0 mm 0.00 in0.0 mm
04:40 AM 59.1°F15.1°C 49.7°F9.8°C 71% 12.6 mph W20.3 kmh W 17.6 mph28.3 kmh 30.01 in1016.3 mb 0.00 in0.0 mm 0.00 in0.0 mm 0.00 in0.0 mm
04:35 AM 59.1°F15.1°C 49.7°F9.8°C 71% 12.7 mph W20.4 kmh W 21.4 mph34.4 kmh 30.01 in1016.3 mb 0.00 in0.0 mm 0.00 in0.0 mm 0.00 in0.0 mm
04:30 AM 58.9°F14.9°C 49.5°F9.7°C 71% 13.4 mph W21.6 kmh W 21.4 mph34.4 kmh 30.01 in1016.3 mb 0.00 in0.0 mm 0.00 in0.0 mm 0.00 in0.0 mm
04:25 AM 58.9°F14.9°C 49.5°F9.7°C 71% 14.9 mph W24.0 kmh W 20.2 mph32.5 kmh 30.04 in1017.3 mb 0.00 in0.0 mm 0.00 in0.0 mm 0.00 in0.0 mm
04:20 AM 58.7°F14.8°C 49.3°F9.6°C 71% 17.1 mph W27.5 kmh W 25.9 mph41.7 kmh 30.04 in1017.3 mb 0.00 in0.0 mm 0.00 in0.0 mm 0.00 in0.0 mm
04:15 AM 58.7°F14.8°C 49.7°F9.8°C 72% 15.6 mph W25.1 kmh W 25.9 mph41.7 kmh 30.04 in1017.3 mb 0.00 in0.0 mm 0.00 in0.0 mm 0.00 in0.0 mm
04:10 AM 58.7°F14.8°C 49.7°F9.8°C 72% 12.1 mph W19.5 kmh W 18.4 mph29.6 kmh 30.01 in1016.3 mb 0.00 in0.0 mm 0.00 in0.0 mm 0.00 in0.0 mm
04:05 AM 58.5°F14.7°C 49.6°F9.8°C 72% 12.4 mph W20.0 kmh W 14.6 mph23.5 kmh 30.01 in1016.3 mb 0.00 in0.0 mm 0.00 in0.0 mm 0.00 in0.0 mm
04:00 AM 58.5°F14.7°C 49.2°F9.6°C 71% 11.6 mph W18.7 kmh W 17.6 mph28.3 kmh 30.01 in1016.3 mb 0.00 in0.0 mm 0.00 in0.0 mm 0.00 in0.0 mm
03:55 AM 58.5°F14.7°C 49.2°F9.6°C 71% 9.4 mph W15.1 kmh W 17.6 mph28.3 kmh 30.04 in1017.3 mb 0.00 in0.0 mm 0.00 in0.0 mm 0.00 in0.0 mm
03:50 AM 58.5°F14.7°C 49.2°F9.6°C 71% 10.3 mph W16.6 kmh W 22.9 mph36.9 kmh 30.04 in1017.3 mb 0.00 in0.0 mm 0.00 in0.0 mm 0.00 in0.0 mm
03:45 AM 58.4°F14.7°C 49.0°F9.4°C 71% 12.6 mph W20.3 kmh W 22.9 mph36.9 kmh 30.04 in1017.3 mb 0.00 in0.0 mm 0.00 in0.0 mm 0.00 in0.0 mm
03:40 AM 58.4°F14.7°C 49.0°F9.4°C 71% 12.0 mph W19.3 kmh W 17.3 mph27.8 kmh 30.01 in1016.3 mb 0.00 in0.0 mm 0.00 in0.0 mm 0.00 in0.0 mm
03:35 AM 58.5°F14.7°C 49.2°F9.6°C 71% 12.0 mph W19.3 kmh W 17.0 mph27.4 kmh 30.01 in1016.3 mb 0.00 in0.0 mm 0.00 in0.0 mm 0.00 in0.0 mm
03:30 AM 58.5°F14.7°C 48.8°F9.3°C 70% 14.1 mph WNW22.7 kmh WNW 29.2 mph47.0 kmh 30.01 in1016.3 mb 0.00 in0.0 mm 0.00 in0.0 mm 0.00 in0.0 mm
03:25 AM 58.5°F14.7°C 48.8°F9.3°C 70% 13.8 mph WNW22.2 kmh WNW 29.2 mph47.0 kmh 30.04 in1017.3 mb 0.00 in0.0 mm 0.00 in0.0 mm 0.00 in0.0 mm
03:20 AM 58.5°F14.7°C 48.8°F9.3°C 70% 11.8 mph W19.0 kmh W 20.2 mph32.5 kmh 30.04 in1017.3 mb 0.00 in0.0 mm 0.00 in0.0 mm 0.00 in0.0 mm
03:15 AM 58.5°F14.7°C 48.8°F9.3°C 70% 12.9 mph W20.8 kmh W 17.3 mph27.8 kmh 30.04 in1017.3 mb 0.00 in0.0 mm 0.00 in0.0 mm 0.00 in0.0 mm
03:10 AM 58.5°F14.7°C 48.8°F9.3°C 70% 11.8 mph WSW19.0 kmh WSW 19.0 mph30.6 kmh 30.04 in1017.3 mb 0.00 in0.0 mm 0.00 in0.0 mm 0.00 in0.0 mm
03:05 AM 58.5°F14.7°C 48.8°F9.3°C 70% 11.9 mph WSW19.2 kmh WSW 19.0 mph30.6 kmh 30.04 in1017.3 mb 0.00 in0.0 mm 0.00 in0.0 mm 0.00 in0.0 mm
03:00 AM 58.5°F14.7°C 48.4°F9.1°C 69% 14.4 mph W23.2 kmh W 20.5 mph33.0 kmh 30.04 in1017.3 mb 0.00 in0.0 mm 0.00 in0.0 mm 0.00 in0.0 mm
02:55 AM 58.5°F14.7°C 48.4°F9.1°C 69% 12.3 mph W19.8 kmh W 20.5 mph33.0 kmh 30.04 in1017.3 mb 0.00 in0.0 mm 0.00 in0.0 mm 0.00 in0.0 mm
02:50 AM 58.7°F14.8°C 48.6°F9.2°C 69% 9.7 mph W15.6 kmh W 17.0 mph27.4 kmh 30.04 in1017.3 mb 0.00 in0.0 mm 0.00 in0.0 mm 0.00 in0.0 mm
02:45 AM 58.9°F14.9°C 49.1°F9.5°C 70% 11.2 mph W18.0 kmh W 19.3 mph31.1 kmh 30.04 in1017.3 mb 0.00 in0.0 mm 0.00 in0.0 mm 0.00 in0.0 mm
02:40 AM 58.9°F14.9°C 49.1°F9.5°C 70% 12.7 mph W20.4 kmh W 19.3 mph31.1 kmh 30.04 in1017.3 mb 0.00 in0.0 mm 0.00 in0.0 mm 0.00 in0.0 mm
02:35 AM 58.9°F14.9°C 49.5°F9.7°C 71% 11.8 mph WNW19.0 kmh WNW 19.0 mph30.6 kmh 30.04 in1017.3 mb 0.00 in0.0 mm 0.00 in0.0 mm 0.00 in0.0 mm
02:30 AM 58.9°F14.9°C 49.5°F9.7°C 71% 13.5 mph W21.7 kmh W 22.6 mph36.4 kmh 30.04 in1017.3 mb 0.00 in0.0 mm 0.00 in0.0 mm 0.00 in0.0 mm
02:25 AM 58.7°F14.8°C 49.3°F9.6°C 71% 13.1 mph W21.1 kmh W 22.6 mph36.4 kmh 30.04 in1017.3 mb 0.00 in0.0 mm 0.00 in0.0 mm 0.00 in0.0 mm
02:20 AM 58.7°F14.8°C 49.0°F9.4°C 70% 13.8 mph W22.2 kmh W 28.0 mph45.1 kmh 30.04 in1017.3 mb 0.00 in0.0 mm 0.00 in0.0 mm 0.00 in0.0 mm
02:15 AM 58.5°F14.7°C 48.8°F9.3°C 70% 14.6 mph W23.5 kmh W 28.0 mph45.1 kmh 30.04 in1017.3 mb 0.00 in0.0 mm 0.00 in0.0 mm 0.00 in0.0 mm
02:10 AM 58.5°F14.7°C 48.8°F9.3°C 70% 11.8 mph W19.0 kmh W 17.6 mph28.3 kmh 30.04 in1017.3 mb 0.00 in0.0 mm 0.00 in0.0 mm 0.00 in0.0 mm
02:05 AM 58.5°F14.7°C 48.8°F9.3°C 70% 11.3 mph W18.2 kmh W 16.4 mph26.4 kmh 30.04 in1017.3 mb 0.00 in0.0 mm 0.00 in0.0 mm 0.00 in0.0 mm
02:00 AM 58.5°F14.7°C 48.8°F9.3°C 70% 13.7 mph W22.0 kmh W 21.7 mph34.9 kmh 30.04 in1017.3 mb 0.00 in0.0 mm 0.00 in0.0 mm 0.00 in0.0 mm
01:55 AM 58.5°F14.7°C 48.8°F9.3°C 70% 14.4 mph W23.2 kmh W 21.7 mph34.9 kmh 30.04 in1017.3 mb 0.00 in0.0 mm 0.00 in0.0 mm 0.00 in0.0 mm
01:50 AM 58.5°F14.7°C 48.8°F9.3°C 70% 11.6 mph WNW18.7 kmh WNW 18.7 mph30.1 kmh 30.04 in1017.3 mb 0.00 in0.0 mm 0.00 in0.0 mm 0.00 in0.0 mm
01:45 AM 58.5°F14.7°C 48.8°F9.3°C 70% 11.1 mph W17.9 kmh W 18.7 mph30.1 kmh 30.04 in1017.3 mb 0.00 in0.0 mm 0.00 in0.0 mm 0.00 in0.0 mm
01:40 AM 58.5°F14.7°C 48.8°F9.3°C 70% 10.6 mph W17.1 kmh W 15.2 mph24.5 kmh 30.04 in1017.3 mb 0.00 in0.0 mm 0.00 in0.0 mm 0.00 in0.0 mm
01:35 AM 58.5°F14.7°C 48.8°F9.3°C 70% 10.9 mph W17.5 kmh W 16.4 mph26.4 kmh 30.04 in1017.3 mb 0.00 in0.0 mm 0.00 in0.0 mm 0.00 in0.0 mm
01:30 AM 58.5°F14.7°C 48.8°F9.3°C 70% 10.4 mph WSW16.7 kmh WSW 16.4 mph26.4 kmh 30.04 in1017.3 mb 0.00 in0.0 mm 0.00 in0.0 mm 0.00 in0.0 mm
01:25 AM 58.4°F14.7°C 48.6°F9.2°C 70% 9.9 mph WSW15.9 kmh WSW 12.2 mph19.6 kmh 30.04 in1017.3 mb 0.00 in0.0 mm 0.00 in0.0 mm 0.00 in0.0 mm
01:20 AM 58.4°F14.7°C 48.6°F9.2°C 70% 10.2 mph WSW16.4 kmh WSW 13.4 mph21.6 kmh 30.04 in1017.3 mb 0.00 in0.0 mm 0.00 in0.0 mm 0.00 in0.0 mm
01:15 AM 58.4°F14.7°C 48.6°F9.2°C 70% 9.3 mph WSW15.0 kmh WSW 14.0 mph22.5 kmh 30.04 in1017.3 mb 0.00 in0.0 mm 0.00 in0.0 mm 0.00 in0.0 mm
01:10 AM 58.2°F14.6°C 48.4°F9.1°C 70% 8.5 mph W13.7 kmh W 14.0 mph22.5 kmh 30.04 in1017.3 mb 0.00 in0.0 mm 0.00 in0.0 mm 0.00 in0.0 mm
01:05 AM 58.2°F14.6°C 48.4°F9.1°C 70% 7.8 mph W12.6 kmh W 11.6 mph18.7 kmh 30.04 in1017.3 mb 0.00 in0.0 mm 0.00 in0.0 mm 0.00 in0.0 mm
01:00 AM 58.2°F14.6°C 48.4°F9.1°C 70% 8.8 mph W14.2 kmh W 14.6 mph23.5 kmh 30.04 in1017.3 mb 0.00 in0.0 mm 0.00 in0.0 mm 0.00 in0.0 mm
12:55 AM 58.0°F14.4°C 48.3°F9.1°C 70% 11.7 mph W18.8 kmh W 17.3 mph27.8 kmh 30.04 in1017.3 mb 0.00 in0.0 mm 0.00 in0.0 mm 0.00 in0.0 mm
12:50 AM 58.0°F14.4°C 48.3°F9.1°C 70% 12.9 mph WSW20.8 kmh WSW 17.3 mph27.8 kmh 30.04 in1017.3 mb 0.00 in0.0 mm 0.00 in0.0 mm 0.00 in0.0 mm
12:45 AM 58.2°F14.6°C 48.4°F9.1°C 70% 11.4 mph W18.3 kmh W 14.0 mph22.5 kmh 30.04 in1017.3 mb 0.00 in0.0 mm 0.00 in0.0 mm 0.00 in0.0 mm
12:40 AM 58.2°F14.6°C 48.4°F9.1°C 70% 10.1 mph W16.3 kmh W 14.0 mph22.5 kmh 30.04 in1017.3 mb 0.00 in0.0 mm 0.00 in0.0 mm 0.00 in0.0 mm
12:35 AM 58.4°F14.7°C 48.6°F9.2°C 70% 7.9 mph W12.7 kmh W 10.7 mph17.2 kmh 30.04 in1017.3 mb 0.00 in0.0 mm 0.00 in0.0 mm 0.00 in0.0 mm
12:30 AM 58.2°F14.6°C 48.4°F9.1°C 70% 8.8 mph W14.2 kmh W 14.3 mph23.0 kmh 30.04 in1017.3 mb 0.00 in0.0 mm 0.00 in0.0 mm 0.00 in0.0 mm
12:25 AM 58.4°F14.7°C 48.6°F9.2°C 70% 9.0 mph W14.5 kmh W 14.3 mph23.0 kmh 30.04 in1017.3 mb 0.00 in0.0 mm 0.00 in0.0 mm 0.00 in0.0 mm
12:20 AM 58.4°F14.7°C 48.6°F9.2°C 70% 10.3 mph W16.6 kmh W 14.0 mph22.5 kmh 30.04 in1017.3 mb 0.00 in0.0 mm 0.00 in0.0 mm 0.00 in0.0 mm
12:15 AM 58.4°F14.7°C 48.6°F9.2°C 70% 11.6 mph W18.7 kmh W 14.0 mph22.5 kmh 30.04 in1017.3 mb 0.00 in0.0 mm 0.00 in0.0 mm 0.00 in0.0 mm
12:10 AM 58.4°F14.7°C 48.6°F9.2°C 70% 12.6 mph W20.3 kmh W 17.3 mph27.8 kmh 30.04 in1017.3 mb 0.00 in0.0 mm 0.00 in0.0 mm 0.00 in0.0 mm
12:05 AM 58.4°F14.7°C 48.6°F9.2°C 70% 13.2 mph W21.2 kmh W 17.3 mph27.8 kmh 30.04 in1017.3 mb 0.00 in0.0 mm 0.00 in0.0 mm 0.00 in0.0 mm
12:00 AM 58.4°F14.7°C 48.6°F9.2°C 70% 14.4 mph WSW23.2 kmh WSW 19.0 mph30.6 kmh 30.04 in1017.3 mb 0.00 in0.0 mm 0.00 in0.0 mm 0.00 in0.0 mm